Time;durP1;ratioP1;P1;durP2;ratioP2;P2;SDS_P1;SDS_P2;PMS_P1;PMS_P2;Temp;Humidity;BMP_temperature;BMP_pressure;BME280_temperature;BME280_humidity;BME280_pressure;Samples;Min_cycle;Max_cycle;Signal;HPM_P1;HPM_P2
2022/06/24 00:00:50;;;;;;;1.57;1.30;;;20.70;99.90;;;;;;5132563;27;20454;-68
2022/06/24 00:03:18;;;;;;;4.10;1.40;;;20.60;99.90;;;;;;5132858;27;20806;-67
2022/06/24 00:05:47;;;;;;;1.93;0.90;;;20.60;99.90;;;;;;5132496;27;20485;-69
2022/06/24 00:08:14;;;;;;;2.30;0.97;;;20.60;99.90;;;;;;5118653;27;20811;-68
2022/06/24 00:10:43;;;;;;;1.20;1.00;;;20.70;99.90;;;;;;5132050;27;20455;-68
2022/06/24 00:13:10;;;;;;;1.03;0.80;;;;;;;;;;5143096;27;21028;-68
2022/06/24 00:15:38;;;;;;;1.50;0.90;;;;;;;;;;5132051;27;20538;-67
2022/06/24 00:18:13;;;;;;;0.90;0.77;;;20.70;99.90;;;;;;5131827;27;20455;-68
2022/06/24 00:20:43;;;;;;;1.27;0.80;;;20.60;99.90;;;;;;5131892;27;20511;-68
2022/06/24 00:23:10;;;;;;;0.90;0.70;;;20.70;99.90;;;;;;5131707;27;20801;-67
2022/06/24 00:25:38;;;;;;;3.27;1.40;;;20.70;99.90;;;;;;5132303;27;20478;-67
2022/06/24 00:28:08;;;;;;;6.93;1.17;;;20.60;99.90;;;;;;5131696;27;20439;-67
2022/06/24 00:30:38;;;;;;;1.30;0.70;;;20.70;99.90;;;;;;5131793;27;20854;-67
2022/06/24 00:33:11;;;;;;;1.77;1.17;;;20.70;99.90;;;;;;5131164;27;20588;-67
2022/06/24 00:35:39;;;;;;;1.73;0.83;;;20.70;99.90;;;;;;5132178;27;20490;-67
2022/06/24 00:38:22;;;;;;;1.73;1.00;;;20.60;99.90;;;;;;5131481;27;20447;-67
2022/06/24 00:40:51;;;;;;;1.40;0.90;;;20.50;99.90;;;;;;5131455;27;20454;-67
2022/06/24 00:43:26;;;;;;;1.10;0.83;;;20.30;99.90;;;;;;5131780;27;20929;-67
2022/06/24 00:45:59;;;;;;;1.33;1.00;;;20.20;99.90;;;;;;5131193;27;20968;-67
2022/06/24 00:48:29;;;;;;;2.33;0.73;;;20.10;99.90;;;;;;5131802;27;20937;-67
2022/06/24 00:50:57;;;;;;;4.20;0.80;;;20.10;99.90;;;;;;5131225;28;20451;-67
2022/06/24 00:53:24;;;;;;;1.63;1.17;;;20.20;99.90;;;;;;5131553;28;20948;-67
2022/06/24 00:55:52;;;;;;;0.90;0.70;;;20.40;99.90;;;;;;5130989;28;20451;-68
2022/06/24 00:58:19;;;;;;;1.73;0.80;;;20.50;99.90;;;;;;5131913;28;20445;-67
2022/06/24 01:00:50;;;;;;;1.47;1.13;;;20.50;99.90;;;;;;5131296;28;20530;-67
2022/06/24 01:03:17;;;;;;;1.97;1.00;;;20.50;99.90;;;;;;5132056;28;20451;-67
2022/06/24 01:05:45;;;;;;;1.40;0.97;;;20.60;99.90;;;;;;5131711;28;20471;-70
2022/06/24 01:08:14;;;;;;;2.23;1.13;;;20.40;99.90;;;;;;5117705;28;20895;-68
2022/06/24 01:10:41;;;;;;;1.50;0.87;;;20.40;99.90;;;;;;5130988;28;20474;-67
2022/06/24 01:13:10;;;;;;;1.10;1.00;;;20.40;99.90;;;;;;5142551;27;20811;-67
2022/06/24 01:15:37;;;;;;;1.63;1.20;;;20.40;99.90;;;;;;5131438;28;20454;-67
2022/06/24 01:18:07;;;;;;;2.13;0.93;;;20.40;99.90;;;;;;5131228;28;20503;-67
2022/06/24 01:20:34;;;;;;;1.60;1.20;;;20.20;99.90;;;;;;5131330;28;20451;-68
2022/06/24 01:23:02;;;;;;;1.73;1.40;;;19.90;99.90;;;;;;5131064;28;20774;-67
2022/06/24 01:25:31;;;;;;;1.47;1.10;;;19.80;99.90;;;;;;5131315;28;20443;-67
2022/06/24 01:27:58;;;;;;;1.10;0.70;;;19.70;99.90;;;;;;5131171;28;20450;-67
2022/06/24 01:30:26;;;;;;;3.10;1.10;;;19.70;99.90;;;;;;5130923;28;20541;-68
2022/06/24 01:32:53;;;;;;;2.20;1.00;;;19.70;99.90;;;;;;5131038;28;20490;-68
2022/06/24 01:35:20;;;;;;;8.53;1.00;;;19.50;99.90;;;;;;5131667;28;20541;-68
2022/06/24 01:37:47;;;;;;;2.60;1.00;;;19.50;99.90;;;;;;5131620;28;20455;-67
2022/06/24 01:40:15;;;;;;;1.63;1.33;;;19.50;99.90;;;;;;5130563;28;20435;-67
2022/06/24 01:42:42;;;;;;;3.17;1.50;;;19.30;99.90;;;;;;5126219;28;20463;-68
2022/06/24 01:45:09;;;;;;;3.33;2.00;;;19.20;99.90;;;;;;5125948;27;20463;-70
2022/06/24 01:47:36;;;;;;;4.17;1.70;;;19.10;99.90;;;;;;5118864;28;20479;-68
2022/06/24 01:50:04;;;;;;;3.03;1.90;;;19.10;99.90;;;;;;5114211;28;20505;-70
2022/06/24 01:52:31;;;;;;;1.70;1.40;;;19.30;99.90;;;;;;5127375;27;20538;-70
2022/06/24 01:54:58;;;;;;;1.43;1.07;;;19.20;99.90;;;;;;5128654;27;20466;-69
2022/06/24 01:57:26;;;;;;;1.70;1.60;;;19.20;99.90;;;;;;5122613;27;20458;-68
2022/06/24 01:59:53;;;;;;;1.20;0.90;;;19.30;99.90;;;;;;5131133;27;20466;-72
2022/06/24 02:02:20;;;;;;;3.97;1.60;;;19.00;99.90;;;;;;5132229;27;20542;-69
2022/06/24 02:04:48;;;;;;;3.63;1.20;;;19.00;99.90;;;;;;5131119;27;20441;-68
2022/06/24 02:07:15;;;;;;;4.97;1.43;;;18.90;99.90;;;;;;5133769;27;20880;-69
2022/06/24 02:15:23;;;;;;;4.00;1.43;;;19.00;99.90;;;;;;5067797;28;20516;-69
2022/06/24 02:17:50;;;;;;;1.63;1.17;;;19.20;99.90;;;;;;5067191;28;20509;-69
2022/06/24 02:20:17;;;;;;;2.07;1.17;;;19.10;99.90;;;;;;5095854;27;20527;-71
2022/06/24 02:22:44;;;;;;;5.07;1.57;;;19.00;99.90;;;;;;5129793;27;20450;-69
2022/06/24 02:25:11;;;;;;;2.47;1.20;;;19.00;99.90;;;;;;5131689;27;20816;-69
2022/06/24 02:27:38;;;;;;;3.90;1.40;;;19.00;99.90;;;;;;5130362;27;20475;-69
2022/06/24 02:30:06;;;;;;;3.47;1.40;;;19.00;99.90;;;;;;5133898;27;20462;-70
2022/06/24 02:32:34;;;;;;;1.80;1.30;;;18.90;99.90;;;;;;5131449;27;20471;-69
2022/06/24 02:35:01;;;;;;;3.07;1.80;;;18.80;99.90;;;;;;5129961;27;20457;-68
2022/06/24 02:37:28;;;;;;;12.40;5.23;;;18.80;99.90;;;;;;5130756;27;20467;-70
2022/06/24 02:39:55;;;;;;;5.53;1.87;;;18.70;99.90;;;;;;5130459;27;20451;-69
2022/06/24 02:42:22;;;;;;;2.20;1.67;;;18.60;99.90;;;;;;5131272;27;20939;-70
2022/06/24 02:44:49;;;;;;;3.63;1.63;;;18.50;99.90;;;;;;5132094;27;20451;-68
2022/06/24 02:47:15;;;;;;;3.30;1.60;;;18.70;99.90;;;;;;5131793;27;20502;-68
2022/06/24 02:49:43;;;;;;;3.63;1.07;;;18.50;99.90;;;;;;5130306;27;20455;-69
2022/06/24 02:52:10;;;;;;;1.70;1.40;;;18.50;99.90;;;;;;5130955;27;20446;-68
2022/06/24 02:54:37;;;;;;;2.20;1.37;;;18.50;99.90;;;;;;5128789;27;20541;-67
2022/06/24 02:57:05;;;;;;;4.30;1.50;;;18.50;99.90;;;;;;5131075;27;20453;-67
2022/06/24 02:59:32;;;;;;;4.83;2.50;;;18.30;99.90;;;;;;5131080;27;20757;-68
2022/06/24 03:01:59;;;;;;;2.60;1.70;;;18.20;99.90;;;;;;5129447;27;21184;-68
2022/06/24 03:04:26;;;;;;;1.93;1.73;;;18.20;99.90;;;;;;5129160;27;20459;-64
2022/06/24 03:06:54;;;;;;;2.40;1.60;;;18.10;99.90;;;;;;5128197;27;20558;-67
2022/06/24 03:09:21;;;;;;;2.87;2.10;;;18.10;99.90;;;;;;5130555;27;20465;-70
2022/06/24 03:11:47;;;;;;;1.93;1.47;;;18.00;99.90;;;;;;5128358;27;20459;-69
2022/06/24 03:14:14;;;;;;;1.67;1.50;;;18.10;99.90;;;;;;5127067;27;20466;-71
2022/06/24 03:16:41;;;;;;;2.43;2.10;;;18.30;99.90;;;;;;5129907;27;20453;-69
2022/06/24 03:19:08;;;;;;;2.33;1.70;;;18.10;99.90;;;;;;5130491;27;20462;-68
2022/06/24 03:21:35;;;;;;;7.40;1.70;;;18.00;99.90;;;;;;5127290;27;20457;-70
2022/06/24 03:24:03;;;;;;;2.60;1.40;;;17.90;99.90;;;;;;5129784;27;20486;-70
2022/06/24 03:26:30;;;;;;;2.30;1.60;;;17.90;99.90;;;;;;5129798;27;20482;-72
2022/06/24 03:28:57;;;;;;;2.50;1.13;;;17.90;99.90;;;;;;5130411;27;20447;-71
2022/06/24 03:31:24;;;;;;;1.43;1.10;;;17.90;99.90;;;;;;5129449;27;20451;-71
2022/06/24 03:33:50;;;;;;;3.90;2.40;;;17.80;99.90;;;;;;5125428;27;20494;-69
2022/06/24 03:36:17;;;;;;;1.50;1.20;;;17.90;99.90;;;;;;5129323;27;21035;-68
2022/06/24 03:38:44;;;;;;;4.10;1.00;;;18.10;99.90;;;;;;5129076;27;20458;-68
2022/06/24 03:41:13;;;;;;;2.83;2.63;;;18.00;99.90;;;;;;5129293;27;20554;-68
2022/06/24 03:43:39;;;;;;;2.13;1.93;;;17.80;99.90;;;;;;5126815;27;20470;-70
2022/06/24 03:46:06;;;;;;;2.60;1.30;;;18.00;99.90;;;;;;5124904;27;20454;-69
2022/06/24 03:48:33;;;;;;;3.90;1.47;;;17.90;99.90;;;;;;5124441;27;20829;-66
2022/06/24 03:51:00;;;;;;;3.30;1.50;;;17.90;99.90;;;;;;5132272;27;20447;-69
2022/06/24 03:53:27;;;;;;;3.43;1.30;;;18.00;99.90;;;;;;5129079;27;20547;-70
2022/06/24 03:55:54;;;;;;;3.70;1.20;;;17.90;99.90;;;;;;5130092;27;20490;-68
2022/06/24 03:58:22;;;;;;;2.23;1.13;;;18.00;99.90;;;;;;5136559;27;20453;-71
2022/06/24 04:00:49;;;;;;;2.37;1.60;;;17.90;99.90;;;;;;5131750;27;20446;-69
2022/06/24 04:03:16;;;;;;;1.57;1.37;;;18.00;99.90;;;;;;5137595;27;20461;-68
2022/06/24 04:05:43;;;;;;;2.13;1.70;;;17.90;99.90;;;;;;5133015;27;20453;-66
2022/06/24 04:08:10;;;;;;;2.73;1.53;;;17.80;99.90;;;;;;5132633;27;20487;-70
2022/06/24 04:10:39;;;;;;;2.00;1.60;;;17.80;99.90;;;;;;5143626;27;21010;-70
2022/06/24 04:13:05;;;;;;;1.60;1.27;;;17.90;99.90;;;;;;5133548;27;20476;-68
2022/06/24 04:15:34;;;;;;;2.37;1.20;;;18.00;99.90;;;;;;5131018;27;20805;-68
2022/06/24 04:18:00;;;;;;;1.60;1.30;;;18.00;99.90;;;;;;5131931;27;20845;-68
2022/06/24 04:20:27;;;;;;;4.80;1.53;;;17.90;99.90;;;;;;5127980;27;20463;-70
2022/06/24 04:22:54;;;;;;;2.60;2.00;;;17.80;99.90;;;;;;5130876;27;20447;-68
2022/06/24 04:25:21;;;;;;;3.00;1.83;;;17.90;99.90;;;;;;5131298;27;20447;-68
2022/06/24 04:27:48;;;;;;;2.77;1.80;;;18.00;99.90;;;;;;5131507;27;20482;-67
2022/06/24 04:30:15;;;;;;;3.63;1.70;;;18.20;99.90;;;;;;5135198;27;20531;-68
2022/06/24 04:32:43;;;;;;;5.30;1.67;;;18.20;99.90;;;;;;5137774;27;20466;-67
2022/06/24 04:35:10;;;;;;;2.10;1.40;;;18.30;99.90;;;;;;5134657;27;20461;-67
2022/06/24 04:37:39;;;;;;;2.27;1.40;;;18.30;99.90;;;;;;5133669;27;20471;-68
2022/06/24 04:40:11;;;;;;;3.20;1.47;;;18.30;99.90;;;;;;5132209;27;20462;-67
2022/06/24 04:42:38;;;;;;;2.23;1.30;;;18.30;99.90;;;;;;5131052;27;20938;-68
2022/06/24 04:45:07;;;;;;;2.60;1.60;;;18.40;99.90;;;;;;5135605;27;20930;-68
2022/06/24 04:47:34;;;;;;;3.03;1.63;;;18.40;99.90;;;;;;5130985;27;20594;-68
2022/06/24 04:50:02;;;;;;;3.43;1.80;;;;;;;;;;5131356;27;20435;-68
2022/06/24 04:52:30;;;;;;;3.10;1.40;;;;;;;;;;5130182;27;20439;-69
2022/06/24 04:54:57;;;;;;;1.70;1.47;;;;;;;;;;5128541;27;20487;-67
2022/06/24 04:57:24;;;;;;;1.93;1.23;;;;;;;;;;5130153;27;20463;-68
2022/06/24 04:59:52;;;;;;;2.10;1.37;;;;;;;;;;5130112;27;20538;-68
2022/06/24 05:02:19;;;;;;;1.90;1.53;;;;;;;;;;5129543;27;20454;-69
2022/06/24 05:04:46;;;;;;;2.00;1.70;;;;;;;;;;5131624;28;20522;-68
2022/06/24 05:07:14;;;;;;;3.20;1.60;;;18.40;99.90;;;;;;5129806;28;20474;-67
2022/06/24 05:09:42;;;;;;;2.70;1.30;;;19.20;99.90;;;;;;5131169;28;20526;-68
2022/06/24 05:12:10;;;;;;;2.20;1.40;;;19.10;99.90;;;;;;5133457;27;20578;-69
2022/06/24 05:14:37;;;;;;;1.60;1.13;;;19.30;99.90;;;;;;5129130;27;20461;-68
2022/06/24 05:17:04;;;;;;;1.77;1.40;;;19.30;99.90;;;;;;5130384;28;20959;-68
2022/06/24 05:19:31;;;;;;;4.23;1.50;;;19.20;99.90;;;;;;5131609;28;20453;-68
2022/06/24 05:21:58;;;;;;;3.17;1.73;;;19.30;99.90;;;;;;5130312;28;20447;-68
2022/06/24 05:24:26;;;;;;;2.13;1.73;;;19.40;99.90;;;;;;5129981;27;20972;-68
2022/06/24 05:26:53;;;;;;;2.80;1.40;;;19.50;99.90;;;;;;5130146;27;20459;-68
2022/06/24 05:29:20;;;;;;;3.30;1.30;;;19.50;99.90;;;;;;5133537;27;20813;-69
2022/06/24 05:31:47;;;;;;;3.13;1.23;;;19.90;99.90;;;;;;5134414;27;20456;-69
2022/06/24 05:34:14;;;;;;;2.20;1.00;;;20.00;99.90;;;;;;5133319;27;20490;-68
2022/06/24 05:36:41;;;;;;;6.83;1.43;;;20.10;99.90;;;;;;5133364;27;20459;-68
2022/06/24 05:39:08;;;;;;;1.83;1.50;;;20.10;99.90;;;;;;5132722;27;20465;-67
2022/06/24 05:41:40;;;;;;;2.90;1.40;;;20.10;99.90;;;;;;5134489;27;20451;-67
2022/06/24 05:44:08;;;;;;;2.27;1.37;;;20.20;99.90;;;;;;5132833;27;20459;-67
2022/06/24 05:46:34;;;;;;;3.73;1.33;;;20.30;99.90;;;;;;5134702;27;20546;-68
2022/06/24 05:49:01;;;;;;;4.97;1.40;;;20.30;99.90;;;;;;5133822;27;20561;-69
2022/06/24 05:51:29;;;;;;;1.60;1.03;;;20.30;99.90;;;;;;5134070;27;20980;-70
2022/06/24 05:56:42;;;;;;;2.40;1.90;;;20.40;99.90;;;;;;5134707;27;20493;-68
2022/06/24 05:59:08;;;;;;;1.40;0.90;;;20.40;99.90;;;;;;5134180;27;20447;-68
2022/06/24 06:01:36;;;;;;;2.90;1.20;;;20.50;99.90;;;;;;5132549;27;20455;-68
2022/06/24 06:04:03;;;;;;;1.30;0.90;;;20.60;99.90;;;;;;5133041;27;20451;-68
2022/06/24 06:06:30;;;;;;;2.20;1.40;;;20.70;99.90;;;;;;5133540;27;20458;-68
2022/06/24 06:08:57;;;;;;;1.60;1.50;;;20.80;99.90;;;;;;5131609;27;20999;-68
2022/06/24 06:11:25;;;;;;;4.30;1.60;;;20.80;99.90;;;;;;5136787;27;20514;-68
2022/06/24 06:13:55;;;;;;;1.63;1.30;;;20.90;99.90;;;;;;5140257;27;20502;-68
2022/06/24 06:16:23;;;;;;;3.40;1.37;;;20.90;99.90;;;;;;5133384;27;20451;-69
2022/06/24 06:18:50;;;;;;;1.80;1.47;;;21.00;99.90;;;;;;5133328;27;20458;-68
2022/06/24 06:21:18;;;;;;;4.20;1.80;;;21.00;99.90;;;;;;5133162;27;20438;-68
2022/06/24 06:23:45;;;;;;;2.73;1.17;;;21.10;89.50;;;;;;5134052;27;20454;-68
2022/06/24 06:26:12;;;;;;;1.77;1.50;;;21.20;1.00;;;;;;5133757;27;20534;-68
2022/06/24 06:28:41;;;;;;;1.63;1.10;;;21.20;1.00;;;;;;5131896;27;20474;-68
2022/06/24 06:31:10;;;;;;;2.07;1.33;;;21.20;1.00;;;;;;5131937;27;20511;-67
2022/06/24 06:33:37;;;;;;;2.70;1.43;;;21.10;1.00;;;;;;5133291;27;20475;-67
2022/06/24 06:36:05;;;;;;;2.63;1.60;;;21.10;1.00;;;;;;5131187;27;20461;-67
2022/06/24 06:38:32;;;;;;;2.60;1.27;;;21.20;1.00;;;;;;5132169;27;20473;-68
2022/06/24 06:41:00;;;;;;;5.93;1.80;;;21.30;1.00;;;;;;5130105;27;20465;-68
2022/06/24 06:43:27;;;;;;;4.37;1.33;;;21.40;99.90;;;;;;5131822;27;20482;-68
2022/06/24 06:45:54;;;;;;;1.80;1.30;;;21.40;1.00;;;;;;5131319;27;20511;-67
2022/06/24 06:48:23;;;;;;;3.97;1.30;;;21.50;1.00;;;;;;5131809;27;20481;-68
2022/06/24 06:50:54;;;;;;;1.50;1.40;;;21.50;99.90;;;;;;5132115;27;20451;-74
2022/06/24 06:53:21;;;;;;;1.53;1.40;;;21.60;99.90;;;;;;5131619;27;20459;-68
2022/06/24 06:55:49;;;;;;;3.27;1.77;;;21.70;99.90;;;;;;5133731;27;20461;-67
2022/06/24 06:58:15;;;;;;;2.27;1.30;;;21.70;99.90;;;;;;5132251;27;20502;-68
2022/06/24 07:00:43;;;;;;;2.00;1.47;;;21.90;1.00;;;;;;5132692;27;20443;-68
2022/06/24 07:03:10;;;;;;;2.50;1.40;;;21.90;99.90;;;;;;5133108;27;20699;-68
2022/06/24 07:05:42;;;;;;;1.83;1.30;;;;;;;;;;5132790;27;20451;-67
2022/06/24 07:08:09;;;;;;;3.13;1.40;;;;;;;;;;5131482;27;20499;-67
2022/06/24 07:10:37;;;;;;;3.60;1.80;;;;;;;;;;5131879;27;20537;-67
2022/06/24 07:13:04;;;;;;;2.17;1.20;;;;;;;;;;5135964;27;20482;-68
2022/06/24 07:15:31;;;;;;;1.63;1.50;;;;;;;;;;5128924;27;20467;-69
2022/06/24 07:17:58;;;;;;;2.20;1.50;;;;;;;;;;5128293;27;20462;-68
2022/06/24 07:20:25;;;;;;;2.47;1.60;;;;;;;;;;5128055;27;20825;-67
2022/06/24 07:22:54;;;;;;;2.20;1.50;;;;;;;;;;5128810;27;20458;-68
2022/06/24 07:25:21;;;;;;;2.00;1.43;;;;;;;;;;5125977;27;20455;-68
2022/06/24 07:27:48;;;;;;;5.53;1.60;;;;;;;;;;5131058;27;20485;-67
2022/06/24 07:30:16;;;;;;;2.20;1.63;;;;;;;;;;5132629;27;20844;-67
2022/06/24 07:32:43;;;;;;;1.87;1.30;;;;;;;;;;5130307;27;20850;-68
2022/06/24 07:35:10;;;;;;;2.20;1.40;;;;;;;;;;5131194;27;20734;-68
2022/06/24 07:37:37;;;;;;;2.87;1.40;;;;;;;;;;5132989;27;20443;-67
2022/06/24 07:40:07;;;;;;;2.50;1.33;;;;;;;;;;5127003;27;20458;-68
2022/06/24 07:42:35;;;;;;;1.70;1.60;;;;;;;;;;5128015;27;20455;-68
2022/06/24 07:45:02;;;;;;;3.43;1.53;;;;;;;;;;5131415;27;20495;-68
2022/06/24 07:47:30;;;;;;;1.43;1.30;;;;;;;;;;5131113;27;20500;-68
2022/06/24 07:49:57;;;;;;;2.53;1.57;;;;;;;;;;5129983;27;20482;-68
2022/06/24 07:52:24;;;;;;;2.63;1.20;;;;;;;;;;5128999;27;20451;-66
2022/06/24 07:56:56;;;;;;;3.77;1.13;;;;;;;;;;5130594;27;20988;-67
2022/06/24 07:57:39;;;;;;;2.60;1.90;;;;;;;;;;5125943;27;20551;-67
2022/06/24 08:00:07;;;;;;;2.20;1.77;;;;;;;;;;5130495;27;20451;-67
2022/06/24 08:02:34;;;;;;;2.53;1.60;;;;;;;;;;5132276;27;20465;-67
2022/06/24 08:05:01;;;;;;;2.20;1.30;;;;;;;;;;5131466;27;20882;-67
2022/06/24 08:07:28;;;;;;;1.63;1.27;;;;;;;;;;5131584;27;20808;-67
2022/06/24 08:09:56;;;;;;;1.50;1.33;;;;;;;;;;5131035;27;20509;-67
2022/06/24 08:12:23;;;;;;;1.20;1.07;;;;;;;;;;5142774;27;20537;-67
2022/06/24 08:14:51;;;;;;;1.90;1.70;;;;;;;;;;5132167;27;20454;-67
2022/06/24 08:17:18;;;;;;;2.30;1.10;;;;;;;;;;5131917;27;20443;-66
2022/06/24 08:19:46;;;;;;;2.67;1.10;;;;;;;;;;5131636;27;20454;-67
2022/06/24 08:22:13;;;;;;;3.23;1.30;;;;;;;;;;5131546;27;20447;-67
2022/06/24 08:24:40;;;;;;;1.20;1.00;;;;;;;;;;5131675;27;20447;-67
2022/06/24 08:27:07;;;;;;;2.37;1.30;;;;;;;;;;5131244;27;20458;-67
2022/06/24 08:29:35;;;;;;;1.60;1.00;;;;;;;;;;5131741;27;20532;-67
2022/06/24 08:32:04;;;;;;;1.20;1.00;;;;;;;;;;5130504;27;20443;-67
2022/06/24 08:34:31;;;;;;;2.30;1.40;;;;;;;;;;5131624;27;20960;-67
2022/06/24 08:36:58;;;;;;;1.47;1.10;;;;;;;;;;5130604;27;20451;-66
2022/06/24 08:39:25;;;;;;;3.87;1.03;;;;;;;;;;5130990;27;20443;-66
2022/06/24 08:41:56;;;;;;;1.77;1.20;;;;;;;;;;5127858;27;21040;-66
2022/06/24 08:44:24;;;;;;;0.83;0.80;;;;;;;;;;5131688;27;20447;-66
2022/06/24 08:46:51;;;;;;;1.30;0.90;;;;;;;;;;5130767;27;20447;-70
2022/06/24 08:49:20;;;;;;;1.93;1.43;;;;;;;;;;5131785;27;20838;-66
2022/06/24 08:51:48;;;;;;;1.10;1.00;;;;;;;;;;5131130;28;20443;-67
2022/06/24 08:54:18;;;;;;;1.50;1.40;;;;;;;;;;5131085;28;20443;-67
2022/06/24 08:56:45;;;;;;;0.93;0.83;;;;;;;;;;5126459;28;20509;-67
2022/06/24 08:59:12;;;;;;;1.20;1.10;;;;;;;;;;5130842;28;20988;-67
2022/06/24 09:01:41;;;;;;;1.50;1.40;;;22.00;1.00;;;;;;5130506;27;20474;-67
2022/06/24 09:04:09;;;;;;;2.97;1.30;;;23.60;99.90;;;;;;5135178;27;20883;-67
2022/06/24 09:06:42;;;;;;;1.87;1.40;;;23.50;99.90;;;;;;5135654;27;20472;-67
2022/06/24 09:09:10;;;;;;;1.70;1.13;;;23.30;99.90;;;;;;5134158;27;20466;-67
2022/06/24 09:11:38;;;;;;;2.47;1.03;;;23.20;99.90;;;;;;5136944;27;20447;-66
2022/06/24 09:14:05;;;;;;;3.27;1.60;;;23.10;99.90;;;;;;5133895;27;20435;-66
2022/06/24 09:16:35;;;;;;;1.90;1.13;;;23.40;99.90;;;;;;5135167;27;20798;-66
2022/06/24 09:19:03;;;;;;;4.40;1.10;;;23.60;99.90;;;;;;5134946;27;20453;-67
2022/06/24 09:21:34;;;;;;;1.67;1.07;;;23.60;99.90;;;;;;5134117;27;20471;-67
2022/06/24 09:24:03;;;;;;;3.10;1.23;;;23.70;99.90;;;;;;5134742;27;20439;-68
2022/06/24 09:26:33;;;;;;;1.90;1.07;;;23.80;99.90;;;;;;5135524;27;20453;-68
2022/06/24 09:29:00;;;;;;;4.00;1.93;;;24.00;99.90;;;;;;5133953;27;20481;-69
2022/06/24 09:31:28;;;;;;;2.50;1.20;;;24.30;99.90;;;;;;5133784;27;20438;-68
2022/06/24 09:33:56;;;;;;;1.20;0.97;;;24.50;99.90;;;;;;5133951;27;20566;-68
2022/06/24 09:36:25;;;;;;;3.33;1.03;;;24.70;99.90;;;;;;5135090;27;20452;-68
2022/06/24 09:38:56;;;;;;;0.73;0.70;;;25.10;99.90;;;;;;5134157;27;20447;-72
2022/06/24 09:41:25;;;;;;;1.83;1.37;;;25.20;99.90;;;;;;5133731;27;20526;-67
2022/06/24 09:43:53;;;;;;;1.73;1.23;;;25.60;99.90;;;;;;5123448;27;20452;-68
2022/06/24 09:46:21;;;;;;;1.27;1.17;;;;;;;;;;5134520;27;20443;-69
2022/06/24 09:48:50;;;;;;;1.23;1.13;;;;;;;;;;5134813;27;20479;-68
2022/06/24 09:51:18;;;;;;;1.53;1.17;;;;;;;;;;5134473;27;20474;-68
2022/06/24 09:53:45;;;;;;;1.47;1.30;;;;;;;;;;5135358;27;20763;-69
2022/06/24 09:56:13;;;;;;;1.40;1.30;;;;;;;;;;5134089;27;20446;-68
2022/06/24 09:58:43;;;;;;;1.20;1.10;;;25.60;99.90;;;;;;5129458;27;20488;-67
2022/06/24 10:01:09;;;;;;;1.30;1.20;;;25.10;99.90;;;;;;5133606;27;20720;-67
2022/06/24 10:03:38;;;;;;;2.70;1.30;;;25.40;99.90;;;;;;5133886;27;20451;-67
2022/06/24 10:06:08;;;;;;;1.10;1.00;;;25.40;99.90;;;;;;5136144;27;20525;-67
2022/06/24 10:08:37;;;;;;;4.73;1.60;;;25.20;99.90;;;;;;5134354;27;20547;-67
2022/06/24 10:11:09;;;;;;;1.20;1.10;;;25.40;99.90;;;;;;5133454;27;20451;-68
2022/06/24 10:13:37;;;;;;;4.10;1.67;;;25.30;99.90;;;;;;5138863;27;20438;-68
2022/06/24 10:16:07;;;;;;;1.20;1.10;;;25.60;99.90;;;;;;5134091;27;20500;-68
2022/06/24 10:18:37;;;;;;;2.07;1.00;;;25.80;99.90;;;;;;5134639;27;20443;-68
2022/06/24 10:21:06;;;;;;;2.13;1.10;;;26.00;99.90;;;;;;5133333;27;20514;-68
2022/06/24 10:23:41;;;;;;;2.80;1.20;;;26.00;99.90;;;;;;5133287;27;20447;-69
2022/06/24 10:26:13;;;;;;;2.67;1.20;;;25.70;99.90;;;;;;5124467;27;20446;-66
2022/06/24 10:29:20;;;;;;;0.80;0.80;;;25.80;99.90;;;;;;5132801;27;20457;-70
2022/06/24 10:31:53;;;;;;;1.20;1.10;;;26.20;99.90;;;;;;5046530;28;20478;-68
2022/06/24 10:34:44;;;;;;;1.33;0.97;;;;;;;;;;5046336;28;20467;-69
2022/06/24 10:37:28;;;;;;;2.20;2.00;;;;;;;;;;5084740;27;21081;-67
2022/06/24 10:39:55;;;;;;;1.80;1.70;;;;;;;;;;5129340;27;20474;-68
2022/06/24 10:42:24;;;;;;;1.50;1.40;;;;;;;;;;5133504;27;20443;-68
2022/06/24 10:45:01;;;;;;;2.70;1.70;;;;;;;;;;5131873;27;20542;-71
2022/06/24 10:47:30;;;;;;;2.13;1.50;;;;;;;;;;5130994;27;20477;-69
2022/06/24 10:50:06;;;;;;;1.60;1.50;;;;;;;;;;5129130;27;20557;-67
2022/06/24 10:52:33;;;;;;;1.37;1.27;;;;;;;;;;5134127;27;20469;-68
2022/06/24 10:55:20;;;;;;;1.70;1.60;;;;;;;;;;5132102;27;20455;-68
2022/06/24 10:57:49;;;;;;;3.17;1.60;;;26.50;99.90;;;;;;5133688;27;20941;-68
2022/06/24 11:00:18;;;;;;;2.30;1.50;;;26.50;99.90;;;;;;5133413;27;20968;-69
2022/06/24 11:02:48;;;;;;;1.70;1.60;;;26.30;99.90;;;;;;5133512;27;20456;-68
2022/06/24 11:05:18;;;;;;;1.50;1.40;;;26.10;99.90;;;;;;5133681;27;20442;-68
2022/06/24 11:07:45;;;;;;;2.00;1.80;;;26.00;99.90;;;;;;5133686;27;20509;-68
2022/06/24 11:10:19;;;;;;;1.70;1.60;;;26.00;99.90;;;;;;5132270;27;20485;-68
2022/06/24 11:12:49;;;;;;;1.37;1.27;;;26.10;99.90;;;;;;5145062;27;20880;-68
2022/06/24 11:15:16;;;;;;;1.33;1.23;;;25.90;99.90;;;;;;5133675;27;20533;-68
2022/06/24 11:17:43;;;;;;;2.33;1.40;;;25.60;99.90;;;;;;5133636;27;20451;-68
2022/06/24 11:20:13;;;;;;;1.70;1.40;;;25.70;99.90;;;;;;5132258;27;20698;-68
2022/06/24 11:22:43;;;;;;;2.20;1.80;;;25.60;99.90;;;;;;5133119;27;20457;-68
2022/06/24 11:25:13;;;;;;;2.20;1.23;;;25.70;99.90;;;;;;5132555;27;20844;-68
2022/06/24 11:27:39;;;;;;;1.33;1.23;;;25.70;99.90;;;;;;5132849;27;20445;-68
2022/06/24 11:30:08;;;;;;;1.93;1.60;;;25.50;99.90;;;;;;5132486;27;20575;-68
2022/06/24 11:32:50;;;;;;;1.30;1.20;;;25.80;99.90;;;;;;5133036;27;20474;-68
2022/06/24 11:35:19;;;;;;;2.63;1.77;;;25.70;99.90;;;;;;5133208;27;20454;-68
2022/06/24 11:37:46;;;;;;;2.50;1.60;;;25.80;99.90;;;;;;5133100;27;20450;-68
2022/06/24 11:40:21;;;;;;;1.67;1.30;;;26.00;99.90;;;;;;5132064;27;20447;-68
2022/06/24 11:42:48;;;;;;;1.33;1.23;;;25.90;99.90;;;;;;5132989;27;20935;-69
2022/06/24 11:45:15;;;;;;;4.83;1.47;;;25.80;99.90;;;;;;5132219;27;20558;-69
2022/06/24 11:47:48;;;;;;;1.50;1.30;;;25.90;99.90;;;;;;5133021;27;20459;-68
2022/06/24 11:50:22;;;;;;;1.57;1.43;;;25.70;99.90;;;;;;5131758;27;20466;-68
2022/06/24 11:52:49;;;;;;;4.20;1.50;;;25.60;99.90;;;;;;5133125;27;20453;-67
2022/06/24 11:55:27;;;;;;;2.17;1.47;;;25.70;99.90;;;;;;5131795;27;20953;-67
2022/06/24 11:57:55;;;;;;;2.80;1.30;;;25.60;99.90;;;;;;5132045;27;20514;-67
2022/06/24 12:00:24;;;;;;;2.33;1.47;;;25.70;99.90;;;;;;5132313;27;20541;-68
2022/06/24 12:02:52;;;;;;;2.60;1.43;;;25.80;99.90;;;;;;5132059;27;20451;-69
2022/06/24 12:05:20;;;;;;;1.70;1.13;;;;;;;;;;5132670;27;20455;-68
2022/06/24 12:07:49;;;;;;;1.20;1.00;;;;;;;;;;5132324;27;20447;-68
2022/06/24 12:10:16;;;;;;;1.00;0.90;;;;;;;;;;5132077;27;20481;-68
2022/06/24 12:12:55;;;;;;;1.47;1.10;;;;;;;;;;5139464;27;20465;-68
2022/06/24 12:15:24;;;;;;;1.53;1.20;;;;;;;;;;5132668;27;20808;-68
2022/06/24 12:17:52;;;;;;;4.27;1.17;;;;;;;;;;5131306;27;20459;-73
2022/06/24 12:20:22;;;;;;;2.30;0.97;;;;;;;;;;5132248;27;20496;-67
2022/06/24 12:23:04;;;;;;;1.37;1.00;;;;;;;;;;5132445;27;20457;-69
2022/06/24 12:25:39;;;;;;;1.20;1.07;;;;;;;;;;5131620;27;20443;-68
2022/06/24 12:28:13;;;;;;;1.47;0.97;;;;;;;;;;5131546;27;20494;-67
2022/06/24 12:30:40;;;;;;;1.27;1.17;;;25.50;99.90;;;;;;5131629;27;20462;-67
2022/06/24 12:33:11;;;;;;;0.97;0.97;;;;;;;;;;5131539;27;20485;-67
2022/06/24 12:35:39;;;;;;;1.17;1.07;;;;;;;;;;5131434;27;20450;-67
2022/06/24 12:38:06;;;;;;;1.83;1.20;;;;;;;;;;5130654;27;20451;-67
2022/06/24 12:40:34;;;;;;;1.27;1.17;;;;;;;;;;5130904;27;20961;-67
2022/06/24 12:43:08;;;;;;;2.83;1.30;;;;;;;;;;5130424;27;20918;-68
2022/06/24 12:45:36;;;;;;;1.70;1.13;;;;;;;;;;5131601;27;20822;-67
2022/06/24 12:50:56;;;;;;;1.90;1.27;;;;;;;;;;5131059;27;20485;-66
2022/06/24 12:53:24;;;;;;;1.83;1.73;;;;;;;;;;5131793;27;20439;-67
2022/06/24 12:55:53;;;;;;;1.40;1.10;;;;;;;;;;5130449;28;20459;-69
2022/06/24 12:58:20;;;;;;;2.60;1.50;;;;;;;;;;5131982;28;20496;-66
2022/06/24 13:00:47;;;;;;;1.67;1.47;;;;;;;;;;5131301;27;20447;-66
2022/06/24 13:03:17;;;;;;;1.60;1.27;;;;;;;;;;5131178;28;20919;-66
2022/06/24 13:05:44;;;;;;;3.00;1.67;;;;;;;;;;5131603;28;20443;-67
2022/06/24 13:08:11;;;;;;;1.97;1.63;;;;;;;;;;5131419;28;20508;-66
2022/06/24 13:10:39;;;;;;;2.33;1.70;;;;;;;;;;5131233;28;20479;-66
2022/06/24 13:13:07;;;;;;;2.77;1.83;;;;;;;;;;5130776;28;20451;-67
2022/06/24 13:15:35;;;;;;;13.67;7.67;;;;;;;;;;5130904;28;20439;-67
2022/06/24 13:18:02;;;;;;;3.60;2.70;;;;;;;;;;5131140;28;20450;-66
2022/06/24 13:20:29;;;;;;;2.80;1.80;;;;;;;;;;5131159;28;20447;-66
2022/06/24 13:22:57;;;;;;;2.70;2.10;;;;;;;;;;5130614;28;20535;-67
2022/06/24 13:25:24;;;;;;;10.43;7.60;;;;;;;;;;5131108;28;20455;-67
2022/06/24 13:27:51;;;;;;;3.77;2.43;;;;;;;;;;5124443;28;20452;-67
2022/06/24 13:30:20;;;;;;;2.50;1.50;;;;;;;;;;5130978;28;20483;-66
2022/06/24 13:32:47;;;;;;;2.60;1.90;;;;;;;;;;5130482;28;20566;-66
2022/06/24 13:35:14;;;;;;;2.30;2.10;;;;;;;;;;5130844;28;20443;-67
2022/06/24 13:37:42;;;;;;;2.33;1.33;;;;;;;;;;5130616;28;20540;-67
2022/06/24 13:40:09;;;;;;;1.77;1.30;;;;;;;;;;5130163;28;20455;-67